sensor_id;sensor_type;location;lat;lon;timestamp;temperature;humidity
52615;DHT22;38508;53.158;6.614;2022-11-02T00:02:12;14.20;99.90
52615;DHT22;38508;53.158;6.614;2022-11-02T00:04:37;14.10;99.90
52615;DHT22;38508;53.158;6.614;2022-11-02T00:07:03;14.00;99.90
52615;DHT22;38508;53.158;6.614;2022-11-02T00:09:29;14.20;99.90
52615;DHT22;38508;53.158;6.614;2022-11-02T00:11:54;14.10;99.90
52615;DHT22;38508;53.158;6.614;2022-11-02T00:14:20;14.10;99.90
52615;DHT22;38508;53.158;6.614;2022-11-02T00:16:46;14.10;99.90
52615;DHT22;38508;53.158;6.614;2022-11-02T00:19:11;14.00;99.90
52615;DHT22;38508;53.158;6.614;2022-11-02T00:21:37;13.80;99.90
52615;DHT22;38508;53.158;6.614;2022-11-02T00:24:04;13.80;99.90
52615;DHT22;38508;53.158;6.614;2022-11-02T00:26:32;13.80;99.90
52615;DHT22;38508;53.158;6.614;2022-11-02T00:28:58;13.80;99.90
52615;DHT22;38508;53.158;6.614;2022-11-02T00:31:24;13.70;99.90
52615;DHT22;38508;53.158;6.614;2022-11-02T00:33:50;13.70;99.90
52615;DHT22;38508;53.158;6.614;2022-11-02T00:36:16;13.50;99.90
52615;DHT22;38508;53.158;6.614;2022-11-02T00:38:42;13.40;99.90
52615;DHT22;38508;53.158;6.614;2022-11-02T00:41:08;13.50;99.90
52615;DHT22;38508;53.158;6.614;2022-11-02T00:43:33;13.40;99.90
52615;DHT22;38508;53.158;6.614;2022-11-02T00:45:59;13.30;99.90
52615;DHT22;38508;53.158;6.614;2022-11-02T00:48:25;13.10;99.90
52615;DHT22;38508;53.158;6.614;2022-11-02T00:50:51;13.00;99.90
52615;DHT22;38508;53.158;6.614;2022-11-02T00:53:17;13.10;99.90
52615;DHT22;38508;53.158;6.614;2022-11-02T00:55:42;13.00;99.90
52615;DHT22;38508;53.158;6.614;2022-11-02T00:58:09;13.00;99.90
52615;DHT22;38508;53.158;6.614;2022-11-02T01:00:34;12.90;99.90
52615;DHT22;38508;53.158;6.614;2022-11-02T01:03:01;13.00;99.90
52615;DHT22;38508;53.158;6.614;2022-11-02T01:05:27;13.00;99.90
52615;DHT22;38508;53.158;6.614;2022-11-02T01:07:52;13.00;99.90
52615;DHT22;38508;53.158;6.614;2022-11-02T01:10:18;12.80;99.90
52615;DHT22;38508;53.158;6.614;2022-11-02T01:12:44;12.80;99.90
52615;DHT22;38508;53.158;6.614;2022-11-02T01:15:09;12.60;99.90
52615;DHT22;38508;53.158;6.614;2022-11-02T01:17:35;12.60;99.90
52615;DHT22;38508;53.158;6.614;2022-11-02T01:20:01;12.70;99.90
52615;DHT22;38508;53.158;6.614;2022-11-02T01:22:27;12.50;99.90
52615;DHT22;38508;53.158;6.614;2022-11-02T01:24:53;12.60;99.90
52615;DHT22;38508;53.158;6.614;2022-11-02T01:27:19;12.50;99.90
52615;DHT22;38508;53.158;6.614;2022-11-02T01:29:45;12.60;99.90
52615;DHT22;38508;53.158;6.614;2022-11-02T01:32:11;12.70;99.90
52615;DHT22;38508;53.158;6.614;2022-11-02T01:34:36;12.60;99.90
52615;DHT22;38508;53.158;6.614;2022-11-02T01:37:02;12.50;99.90
52615;DHT22;38508;53.158;6.614;2022-11-02T01:39:28;12.50;99.90
52615;DHT22;38508;53.158;6.614;2022-11-02T01:41:53;12.60;99.90
52615;DHT22;38508;53.158;6.614;2022-11-02T01:44:30;12.70;99.90
52615;DHT22;38508;53.158;6.614;2022-11-02T01:47:06;12.80;99.90
52615;DHT22;38508;53.158;6.614;2022-11-02T01:49:34;12.70;99.90
52615;DHT22;38508;53.158;6.614;2022-11-02T01:52:07;12.60;99.90
52615;DHT22;38508;53.158;6.614;2022-11-02T01:54:43;12.70;99.90
52615;DHT22;38508;53.158;6.614;2022-11-02T01:57:12;12.70;99.90
52615;DHT22;38508;53.158;6.614;2022-11-02T01:59:44;12.60;99.90
52615;DHT22;38508;53.158;6.614;2022-11-02T02:02:17;12.60;99.90
52615;DHT22;38508;53.158;6.614;2022-11-02T02:04:48;12.60;99.90
52615;DHT22;38508;53.158;6.614;2022-11-02T02:07:14;12.60;99.90
52615;DHT22;38508;53.158;6.614;2022-11-02T02:09:40;12.70;99.90
52615;DHT22;38508;53.158;6.614;2022-11-02T02:12:06;12.70;99.90
52615;DHT22;38508;53.158;6.614;2022-11-02T02:14:32;12.70;99.90
52615;DHT22;38508;53.158;6.614;2022-11-02T02:17:09;12.60;99.90
52615;DHT22;38508;53.158;6.614;2022-11-02T02:25:58;12.50;99.90
52615;DHT22;38508;53.158;6.614;2022-11-02T02:34:10;12.40;99.90
52615;DHT22;38508;53.158;6.614;2022-11-02T02:36:49;12.50;99.90
52615;DHT22;38508;53.158;6.614;2022-11-02T02:39:25;12.70;99.90
52615;DHT22;38508;53.158;6.614;2022-11-02T02:42:18;12.80;99.90
52615;DHT22;38508;53.158;6.614;2022-11-02T02:44:57;12.90;99.90
52615;DHT22;38508;53.158;6.614;2022-11-02T02:47:28;13.10;99.90
52615;DHT22;38508;53.158;6.614;2022-11-02T02:50:12;13.00;99.90
52615;DHT22;38508;53.158;6.614;2022-11-02T02:52:40;13.00;99.90
52615;DHT22;38508;53.158;6.614;2022-11-02T02:55:08;13.10;99.90
52615;DHT22;38508;53.158;6.614;2022-11-02T02:57:36;12.90;99.90
52615;DHT22;38508;53.158;6.614;2022-11-02T03:00:02;13.00;99.90
52615;DHT22;38508;53.158;6.614;2022-11-02T03:02:32;13.00;99.90
52615;DHT22;38508;53.158;6.614;2022-11-02T03:04:58;13.00;99.90
52615;DHT22;38508;53.158;6.614;2022-11-02T03:07:33;13.00;99.90
52615;DHT22;38508;53.158;6.614;2022-11-02T03:10:15;12.90;99.90
52615;DHT22;38508;53.158;6.614;2022-11-02T03:15:26;12.80;99.90
52615;DHT22;38508;53.158;6.614;2022-11-02T03:18:15;12.70;99.90
52615;DHT22;38508;53.158;6.614;2022-11-02T03:23:43;12.50;99.90
52615;DHT22;38508;53.158;6.614;2022-11-02T03:26:24;12.60;99.90
52615;DHT22;38508;53.158;6.614;2022-11-02T03:28:59;12.60;99.90
52615;DHT22;38508;53.158;6.614;2022-11-02T03:31:40;12.50;99.90
52615;DHT22;38508;53.158;6.614;2022-11-02T03:34:25;12.60;99.90
52615;DHT22;38508;53.158;6.614;2022-11-02T03:37:09;12.50;99.90
52615;DHT22;38508;53.158;6.614;2022-11-02T03:39:45;12.50;99.90
52615;DHT22;38508;53.158;6.614;2022-11-02T03:42:21;12.50;99.90
52615;DHT22;38508;53.158;6.614;2022-11-02T03:44:52;12.40;99.90
52615;DHT22;38508;53.158;6.614;2022-11-02T03:47:20;12.50;99.90
52615;DHT22;38508;53.158;6.614;2022-11-02T03:49:47;12.60;99.90
52615;DHT22;38508;53.158;6.614;2022-11-02T03:52:23;12.50;99.90
52615;DHT22;38508;53.158;6.614;2022-11-02T03:54:53;12.30;99.90
52615;DHT22;38508;53.158;6.614;2022-11-02T03:57:26;12.40;99.90
52615;DHT22;38508;53.158;6.614;2022-11-02T04:00:04;12.40;99.90
52615;DHT22;38508;53.158;6.614;2022-11-02T04:02:30;12.30;99.90
52615;DHT22;38508;53.158;6.614;2022-11-02T04:04:59;12.40;99.90
52615;DHT22;38508;53.158;6.614;2022-11-02T04:07:26;12.20;99.90
52615;DHT22;38508;53.158;6.614;2022-11-02T04:10:14;12.40;99.90
52615;DHT22;38508;53.158;6.614;2022-11-02T04:12:40;12.30;99.90
52615;DHT22;38508;53.158;6.614;2022-11-02T04:15:24;12.20;99.90
52615;DHT22;38508;53.158;6.614;2022-11-02T04:17:50;12.20;99.90
52615;DHT22;38508;53.158;6.614;2022-11-02T04:20:38;12.10;99.90
52615;DHT22;38508;53.158;6.614;2022-11-02T04:23:04;12.10;99.90
52615;DHT22;38508;53.158;6.614;2022-11-02T04:25:54;11.90;99.90
52615;DHT22;38508;53.158;6.614;2022-11-02T04:28:20;12.00;99.90
52615;DHT22;38508;53.158;6.614;2022-11-02T04:30:46;12.10;99.90
52615;DHT22;38508;53.158;6.614;2022-11-02T04:33:12;12.10;99.90
52615;DHT22;38508;53.158;6.614;2022-11-02T04:35:58;12.20;99.90
52615;DHT22;38508;53.158;6.614;2022-11-02T04:38:24;12.20;99.90
52615;DHT22;38508;53.158;6.614;2022-11-02T04:41:16;12.40;99.90
52615;DHT22;38508;53.158;6.614;2022-11-02T04:44:01;12.30;99.90
52615;DHT22;38508;53.158;6.614;2022-11-02T04:46:29;12.30;99.90
52615;DHT22;38508;53.158;6.614;2022-11-02T04:48:56;12.10;99.90
52615;DHT22;38508;53.158;6.614;2022-11-02T04:51:22;12.20;99.90
52615;DHT22;38508;53.158;6.614;2022-11-02T04:53:50;12.30;99.90
52615;DHT22;38508;53.158;6.614;2022-11-02T04:56:16;12.10;99.90
52615;DHT22;38508;53.158;6.614;2022-11-02T04:58:42;12.20;99.90
52615;DHT22;38508;53.158;6.614;2022-11-02T05:01:11;12.20;99.90
52615;DHT22;38508;53.158;6.614;2022-11-02T05:03:38;12.30;99.90
52615;DHT22;38508;53.158;6.614;2022-11-02T05:06:04;12.40;99.90
52615;DHT22;38508;53.158;6.614;2022-11-02T05:08:30;12.40;99.90
52615;DHT22;38508;53.158;6.614;2022-11-02T05:10:57;12.40;99.90
52615;DHT22;38508;53.158;6.614;2022-11-02T05:13:23;12.30;99.90
52615;DHT22;38508;53.158;6.614;2022-11-02T05:15:49;12.30;99.90
52615;DHT22;38508;53.158;6.614;2022-11-02T05:18:15;12.20;99.90
52615;DHT22;38508;53.158;6.614;2022-11-02T05:20:42;12.20;99.90
52615;DHT22;38508;53.158;6.614;2022-11-02T05:23:07;12.30;99.90
52615;DHT22;38508;53.158;6.614;2022-11-02T05:25:33;12.30;99.90
52615;DHT22;38508;53.158;6.614;2022-11-02T05:27:59;12.10;99.90
52615;DHT22;38508;53.158;6.614;2022-11-02T05:30:24;12.10;99.90
52615;DHT22;38508;53.158;6.614;2022-11-02T05:32:55;12.10;99.90
52615;DHT22;38508;53.158;6.614;2022-11-02T05:35:21;12.10;99.90
52615;DHT22;38508;53.158;6.614;2022-11-02T05:37:46;12.10;99.90
52615;DHT22;38508;53.158;6.614;2022-11-02T05:40:12;12.00;99.90
52615;DHT22;38508;53.158;6.614;2022-11-02T05:42:38;12.10;99.90
52615;DHT22;38508;53.158;6.614;2022-11-02T05:45:04;12.10;99.90
52615;DHT22;38508;53.158;6.614;2022-11-02T05:47:33;12.20;99.90
52615;DHT22;38508;53.158;6.614;2022-11-02T05:49:58;12.30;99.90
52615;DHT22;38508;53.158;6.614;2022-11-02T05:52:24;12.20;99.90
52615;DHT22;38508;53.158;6.614;2022-11-02T05:54:50;12.30;99.90
52615;DHT22;38508;53.158;6.614;2022-11-02T05:57:15;12.20;99.90
52615;DHT22;38508;53.158;6.614;2022-11-02T05:59:41;12.20;99.90
52615;DHT22;38508;53.158;6.614;2022-11-02T06:02:07;12.30;99.90
52615;DHT22;38508;53.158;6.614;2022-11-02T06:04:33;12.30;99.90
52615;DHT22;38508;53.158;6.614;2022-11-02T06:06:58;12.40;99.90
52615;DHT22;38508;53.158;6.614;2022-11-02T06:09:24;12.40;99.90
52615;DHT22;38508;53.158;6.614;2022-11-02T06:11:50;12.30;99.90
52615;DHT22;38508;53.158;6.614;2022-11-02T06:14:15;12.20;99.90
52615;DHT22;38508;53.158;6.614;2022-11-02T06:16:41;12.20;99.90
52615;DHT22;38508;53.158;6.614;2022-11-02T06:19:06;12.10;99.90
52615;DHT22;38508;53.158;6.614;2022-11-02T06:21:32;12.10;99.90
52615;DHT22;38508;53.158;6.614;2022-11-02T06:23:58;12.20;99.90
52615;DHT22;38508;53.158;6.614;2022-11-02T06:26:23;12.20;99.90
52615;DHT22;38508;53.158;6.614;2022-11-02T06:28:49;12.20;99.90
52615;DHT22;38508;53.158;6.614;2022-11-02T06:31:15;12.30;99.90
52615;DHT22;38508;53.158;6.614;2022-11-02T06:33:42;12.30;99.90
52615;DHT22;38508;53.158;6.614;2022-11-02T06:36:09;12.30;99.90
52615;DHT22;38508;53.158;6.614;2022-11-02T06:38:34;12.30;99.90
52615;DHT22;38508;53.158;6.614;2022-11-02T06:41:02;12.30;99.90
52615;DHT22;38508;53.158;6.614;2022-11-02T06:43:30;12.30;99.90
52615;DHT22;38508;53.158;6.614;2022-11-02T06:45:56;12.20;99.90
52615;DHT22;38508;53.158;6.614;2022-11-02T06:48:23;12.10;99.90
52615;DHT22;38508;53.158;6.614;2022-11-02T06:50:49;12.00;99.90
52615;DHT22;38508;53.158;6.614;2022-11-02T06:53:15;12.20;99.90
52615;DHT22;38508;53.158;6.614;2022-11-02T06:55:41;12.20;99.90
52615;DHT22;38508;53.158;6.614;2022-11-02T06:58:06;12.20;99.90
52615;DHT22;38508;53.158;6.614;2022-11-02T07:00:32;12.30;99.90
52615;DHT22;38508;53.158;6.614;2022-11-02T07:03:03;12.10;99.90
52615;DHT22;38508;53.158;6.614;2022-11-02T07:05:29;12.10;99.90
52615;DHT22;38508;53.158;6.614;2022-11-02T07:07:55;12.10;99.90
52615;DHT22;38508;53.158;6.614;2022-11-02T07:10:21;12.10;99.90
52615;DHT22;38508;53.158;6.614;2022-11-02T07:12:46;12.10;99.90
52615;DHT22;38508;53.158;6.614;2022-11-02T07:15:12;12.10;99.90
52615;DHT22;38508;53.158;6.614;2022-11-02T07:17:39;12.10;99.90
52615;DHT22;38508;53.158;6.614;2022-11-02T07:20:05;12.20;99.90
52615;DHT22;38508;53.158;6.614;2022-11-02T07:22:31;12.30;99.90
52615;DHT22;38508;53.158;6.614;2022-11-02T07:24:57;12.30;99.90
52615;DHT22;38508;53.158;6.614;2022-11-02T07:27:22;12.30;99.90
52615;DHT22;38508;53.158;6.614;2022-11-02T07:29:48;12.30;99.90
52615;DHT22;38508;53.158;6.614;2022-11-02T07:32:13;12.20;99.90
52615;DHT22;38508;53.158;6.614;2022-11-02T07:34:39;12.20;99.90
52615;DHT22;38508;53.158;6.614;2022-11-02T07:37:05;12.20;99.90
52615;DHT22;38508;53.158;6.614;2022-11-02T07:39:31;12.20;99.90
52615;DHT22;38508;53.158;6.614;2022-11-02T07:41:56;12.30;99.90
52615;DHT22;38508;53.158;6.614;2022-11-02T07:44:22;12.20;99.90
52615;DHT22;38508;53.158;6.614;2022-11-02T07:46:48;12.20;99.90
52615;DHT22;38508;53.158;6.614;2022-11-02T07:49:13;12.10;99.90
52615;DHT22;38508;53.158;6.614;2022-11-02T07:51:39;12.10;99.90
52615;DHT22;38508;53.158;6.614;2022-11-02T07:54:05;11.80;99.90
52615;DHT22;38508;53.158;6.614;2022-11-02T07:56:30;11.60;99.90
52615;DHT22;38508;53.158;6.614;2022-11-02T07:58:56;11.60;99.90
52615;DHT22;38508;53.158;6.614;2022-11-02T08:01:21;11.50;99.90
52615;DHT22;38508;53.158;6.614;2022-11-02T08:03:47;11.60;99.90
52615;DHT22;38508;53.158;6.614;2022-11-02T08:06:13;11.70;99.90
52615;DHT22;38508;53.158;6.614;2022-11-02T08:08:39;11.70;99.90
52615;DHT22;38508;53.158;6.614;2022-11-02T08:11:06;11.70;99.90
52615;DHT22;38508;53.158;6.614;2022-11-02T08:13:32;11.70;99.90
52615;DHT22;38508;53.158;6.614;2022-11-02T08:15:59;11.70;99.90
52615;DHT22;38508;53.158;6.614;2022-11-02T08:18:25;11.70;99.90
52615;DHT22;38508;53.158;6.614;2022-11-02T08:20:57;11.90;99.90
52615;DHT22;38508;53.158;6.614;2022-11-02T08:23:24;12.00;99.90
52615;DHT22;38508;53.158;6.614;2022-11-02T08:25:52;12.00;99.90
52615;DHT22;38508;53.158;6.614;2022-11-02T08:28:24;12.20;99.90
52615;DHT22;38508;53.158;6.614;2022-11-02T08:30:50;12.20;99.90
52615;DHT22;38508;53.158;6.614;2022-11-02T08:33:18;12.30;99.90
52615;DHT22;38508;53.158;6.614;2022-11-02T08:35:45;12.30;99.90
52615;DHT22;38508;53.158;6.614;2022-11-02T08:38:11;12.20;99.90
52615;DHT22;38508;53.158;6.614;2022-11-02T08:40:37;12.20;99.90
52615;DHT22;38508;53.158;6.614;2022-11-02T08:43:11;12.20;99.90
52615;DHT22;38508;53.158;6.614;2022-11-02T08:45:38;12.10;99.90
52615;DHT22;38508;53.158;6.614;2022-11-02T08:48:05;12.20;99.90
52615;DHT22;38508;53.158;6.614;2022-11-02T08:50:31;12.30;99.90
52615;DHT22;38508;53.158;6.614;2022-11-02T08:52:57;12.30;99.90
52615;DHT22;38508;53.158;6.614;2022-11-02T08:55:23;12.40;99.90
52615;DHT22;38508;53.158;6.614;2022-11-02T08:57:54;12.40;99.90
52615;DHT22;38508;53.158;6.614;2022-11-02T09:00:22;12.40;99.90
52615;DHT22;38508;53.158;6.614;2022-11-02T09:02:59;12.50;99.90
52615;DHT22;38508;53.158;6.614;2022-11-02T09:05:26;12.40;99.90
52615;DHT22;38508;53.158;6.614;2022-11-02T09:07:59;12.40;99.90
52615;DHT22;38508;53.158;6.614;2022-11-02T09:10:27;12.40;99.90
52615;DHT22;38508;53.158;6.614;2022-11-02T09:12:54;12.50;99.90
52615;DHT22;38508;53.158;6.614;2022-11-02T09:15:19;12.50;99.90
52615;DHT22;38508;53.158;6.614;2022-11-02T09:17:47;12.50;99.90
52615;DHT22;38508;53.158;6.614;2022-11-02T09:20:14;12.60;99.90
52615;DHT22;38508;53.158;6.614;2022-11-02T09:22:40;12.60;99.90
52615;DHT22;38508;53.158;6.614;2022-11-02T09:25:06;12.60;99.90
52615;DHT22;38508;53.158;6.614;2022-11-02T09:27:32;12.70;99.90
52615;DHT22;38508;53.158;6.614;2022-11-02T09:29:58;12.80;99.90
52615;DHT22;38508;53.158;6.614;2022-11-02T09:32:23;12.70;99.90
52615;DHT22;38508;53.158;6.614;2022-11-02T09:34:49;12.70;99.90
52615;DHT22;38508;53.158;6.614;2022-11-02T09:37:16;12.80;99.90
52615;DHT22;38508;53.158;6.614;2022-11-02T09:39:42;12.90;99.90
52615;DHT22;38508;53.158;6.614;2022-11-02T09:45:12;13.00;99.90
52615;DHT22;38508;53.158;6.614;2022-11-02T09:47:48;12.90;99.90
52615;DHT22;38508;53.158;6.614;2022-11-02T09:50:21;13.00;99.90
52615;DHT22;38508;53.158;6.614;2022-11-02T09:52:58;13.00;99.90
52615;DHT22;38508;53.158;6.614;2022-11-02T09:55:33;13.00;99.90
52615;DHT22;38508;53.158;6.614;2022-11-02T09:58:05;12.90;99.90
52615;DHT22;38508;53.158;6.614;2022-11-02T10:00:34;13.10;99.90
52615;DHT22;38508;53.158;6.614;2022-11-02T10:03:24;13.20;99.90
52615;DHT22;38508;53.158;6.614;2022-11-02T10:06:05;13.40;99.90
52615;DHT22;38508;53.158;6.614;2022-11-02T10:08:55;13.50;99.90
52615;DHT22;38508;53.158;6.614;2022-11-02T10:13:55;13.50;99.70
52615;DHT22;38508;53.158;6.614;2022-11-02T10:16:35;13.40;99.90
52615;DHT22;38508;53.158;6.614;2022-11-02T10:19:08;13.40;99.40
52615;DHT22;38508;53.158;6.614;2022-11-02T10:21:37;13.40;99.80
52615;DHT22;38508;53.158;6.614;2022-11-02T10:26:38;13.60;99.90
52615;DHT22;38508;53.158;6.614;2022-11-02T10:29:36;13.80;99.80
52615;DHT22;38508;53.158;6.614;2022-11-02T10:32:04;13.90;99.30
52615;DHT22;38508;53.158;6.614;2022-11-02T10:34:31;14.00;99.10
52615;DHT22;38508;53.158;6.614;2022-11-02T10:42:59;14.00;98.70
52615;DHT22;38508;53.158;6.614;2022-11-02T10:45:38;14.00;99.00
52615;DHT22;38508;53.158;6.614;2022-11-02T10:51:08;14.10;98.50
52615;DHT22;38508;53.158;6.614;2022-11-02T10:53:45;14.20;98.10
52615;DHT22;38508;53.158;6.614;2022-11-02T10:56:21;14.20;98.40
52615;DHT22;38508;53.158;6.614;2022-11-02T10:59:01;14.10;98.10
52615;DHT22;38508;53.158;6.614;2022-11-02T11:01:29;14.00;97.50
52615;DHT22;38508;53.158;6.614;2022-11-02T11:04:04;13.80;97.50
52615;DHT22;38508;53.158;6.614;2022-11-02T11:06:41;13.90;97.80
52615;DHT22;38508;53.158;6.614;2022-11-02T11:09:28;13.90;97.90
52615;DHT22;38508;53.158;6.614;2022-11-02T11:12:03;14.00;98.10
52615;DHT22;38508;53.158;6.614;2022-11-02T11:14:38;13.90;97.90
52615;DHT22;38508;53.158;6.614;2022-11-02T11:17:17;13.70;98.10
52615;DHT22;38508;53.158;6.614;2022-11-02T11:19:51;13.80;98.40
52615;DHT22;38508;53.158;6.614;2022-11-02T11:22:27;14.00;98.20
52615;DHT22;38508;53.158;6.614;2022-11-02T11:25:20;14.00;98.10
52615;DHT22;38508;53.158;6.614;2022-11-02T11:30:35;14.10;98.30
52615;DHT22;38508;53.158;6.614;2022-11-02T11:33:04;14.10;98.50
52615;DHT22;38508;53.158;6.614;2022-11-02T11:35:33;13.80;98.20
52615;DHT22;38508;53.158;6.614;2022-11-02T11:38:06;13.90;98.40
52615;DHT22;38508;53.158;6.614;2022-11-02T11:40:38;13.90;98.00
52615;DHT22;38508;53.158;6.614;2022-11-02T11:43:10;13.70;98.40
52615;DHT22;38508;53.158;6.614;2022-11-02T11:45:37;13.60;98.50
52615;DHT22;38508;53.158;6.614;2022-11-02T11:50:45;13.60;97.90
52615;DHT22;38508;53.158;6.614;2022-11-02T11:55:54;14.30;96.90
52615;DHT22;38508;53.158;6.614;2022-11-02T11:58:30;14.50;96.30
52615;DHT22;38508;53.158;6.614;2022-11-02T12:03:55;14.70;95.90
52615;DHT22;38508;53.158;6.614;2022-11-02T12:06:45;14.80;96.00
52615;DHT22;38508;53.158;6.614;2022-11-02T12:09:17;14.80;96.00
52615;DHT22;38508;53.158;6.614;2022-11-02T12:12:01;14.90;96.10
52615;DHT22;38508;53.158;6.614;2022-11-02T12:20:49;15.00;95.90
52615;DHT22;38508;53.158;6.614;2022-11-02T12:23:34;15.00;95.80
52615;DHT22;38508;53.158;6.614;2022-11-02T12:29:24;15.30;95.70
52615;DHT22;38508;53.158;6.614;2022-11-02T12:31:36;15.60;95.60
52615;DHT22;38508;53.158;6.614;2022-11-02T12:34:22;15.70;95.70
52615;DHT22;38508;53.158;6.614;2022-11-02T12:42:30;16.60;95.90
52615;DHT22;38508;53.158;6.614;2022-11-02T12:45:43;16.40;94.90
52615;DHT22;38508;53.158;6.614;2022-11-02T12:48:29;16.70;95.20
52615;DHT22;38508;53.158;6.614;2022-11-02T12:56:09;15.80;95.30
52615;DHT22;38508;53.158;6.614;2022-11-02T12:58:38;16.30;95.60
52615;DHT22;38508;53.158;6.614;2022-11-02T13:04:21;15.10;95.90
52615;DHT22;38508;53.158;6.614;2022-11-02T13:06:50;15.30;95.80
52615;DHT22;38508;53.158;6.614;2022-11-02T13:09:37;15.90;95.70
52615;DHT22;38508;53.158;6.614;2022-11-02T13:12:08;16.10;95.50
52615;DHT22;38508;53.158;6.614;2022-11-02T13:14:47;16.40;95.40
52615;DHT22;38508;53.158;6.614;2022-11-02T13:17:26;16.80;95.10
52615;DHT22;38508;53.158;6.614;2022-11-02T13:19:55;17.00;95.40
52615;DHT22;38508;53.158;6.614;2022-11-02T13:22:29;17.20;95.30
52615;DHT22;38508;53.158;6.614;2022-11-02T13:25:02;17.40;95.20
52615;DHT22;38508;53.158;6.614;2022-11-02T13:27:33;17.60;95.50
52615;DHT22;38508;53.158;6.614;2022-11-02T13:30:05;17.40;95.10
52615;DHT22;38508;53.158;6.614;2022-11-02T13:33:02;17.00;95.10
52615;DHT22;38508;53.158;6.614;2022-11-02T13:35:34;16.80;95.60
52615;DHT22;38508;53.158;6.614;2022-11-02T13:38:04;16.50;95.60
52615;DHT22;38508;53.158;6.614;2022-11-02T13:51:26;16.10;96.30
52615;DHT22;38508;53.158;6.614;2022-11-02T13:54:04;16.00;96.30
52615;DHT22;38508;53.158;6.614;2022-11-02T13:56:35;15.90;96.30
52615;DHT22;38508;53.158;6.614;2022-11-02T13:59:04;15.70;96.10
52615;DHT22;38508;53.158;6.614;2022-11-02T14:01:33;15.50;96.20
52615;DHT22;38508;53.158;6.614;2022-11-02T14:04:06;15.60;96.50
52615;DHT22;38508;53.158;6.614;2022-11-02T14:06:55;15.80;96.50
52615;DHT22;38508;53.158;6.614;2022-11-02T14:09:29;15.80;96.50
52615;DHT22;38508;53.158;6.614;2022-11-02T14:15:38;15.40;96.50
52615;DHT22;38508;53.158;6.614;2022-11-02T14:17:28;15.30;97.00
52615;DHT22;38508;53.158;6.614;2022-11-02T14:19:54;15.30;96.80
52615;DHT22;38508;53.158;6.614;2022-11-02T14:22:20;15.20;96.40
52615;DHT22;38508;53.158;6.614;2022-11-02T14:40:58;15.40;97.40
52615;DHT22;38508;53.158;6.614;2022-11-02T14:48:57;15.30;97.30
52615;DHT22;38508;53.158;6.614;2022-11-02T14:51:32;15.10;97.50
52615;DHT22;38508;53.158;6.614;2022-11-02T14:54:01;15.00;97.60
52615;DHT22;38508;53.158;6.614;2022-11-02T14:56:51;15.10;97.70
52615;DHT22;38508;53.158;6.614;2022-11-02T14:59:24;15.20;97.70
52615;DHT22;38508;53.158;6.614;2022-11-02T15:04:20;15.20;97.70
52615;DHT22;38508;53.158;6.614;2022-11-02T15:06:52;15.30;97.70
52615;DHT22;38508;53.158;6.614;2022-11-02T15:09:56;15.50;97.70
52615;DHT22;38508;53.158;6.614;2022-11-02T15:23:43;15.20;97.50
52615;DHT22;38508;53.158;6.614;2022-11-02T15:25:46;15.20;97.70
52615;DHT22;38508;53.158;6.614;2022-11-02T15:28:16;15.30;97.90
52615;DHT22;38508;53.158;6.614;2022-11-02T15:30:51;15.30;98.00
52615;DHT22;38508;53.158;6.614;2022-11-02T15:33:40;15.10;97.80
52615;DHT22;38508;53.158;6.614;2022-11-02T15:36:14;15.10;97.90
52615;DHT22;38508;53.158;6.614;2022-11-02T15:38:40;14.90;97.70
52615;DHT22;38508;53.158;6.614;2022-11-02T15:41:27;14.90;98.00
52615;DHT22;38508;53.158;6.614;2022-11-02T15:44:20;14.70;98.00
52615;DHT22;38508;53.158;6.614;2022-11-02T15:47:01;14.80;98.10
52615;DHT22;38508;53.158;6.614;2022-11-02T15:49:56;14.80;98.20
52615;DHT22;38508;53.158;6.614;2022-11-02T15:55:19;14.80;98.00
52615;DHT22;38508;53.158;6.614;2022-11-02T15:58:10;14.60;98.10
52615;DHT22;38508;53.158;6.614;2022-11-02T16:00:39;14.60;98.30
52615;DHT22;38508;53.158;6.614;2022-11-02T16:03:08;14.70;98.30
52615;DHT22;38508;53.158;6.614;2022-11-02T16:08:03;14.30;98.20
52615;DHT22;38508;53.158;6.614;2022-11-02T16:10:33;14.30;98.40
52615;DHT22;38508;53.158;6.614;2022-11-02T16:13:19;14.40;98.40
52615;DHT22;38508;53.158;6.614;2022-11-02T16:15:48;14.50;98.30
52615;DHT22;38508;53.158;6.614;2022-11-02T16:18:28;14.50;98.20
52615;DHT22;38508;53.158;6.614;2022-11-02T16:20:59;14.40;98.00
52615;DHT22;38508;53.158;6.614;2022-11-02T16:23:37;14.40;98.10
52615;DHT22;38508;53.158;6.614;2022-11-02T16:26:06;14.40;98.10
52615;DHT22;38508;53.158;6.614;2022-11-02T16:28:35;14.30;98.10
52615;DHT22;38508;53.158;6.614;2022-11-02T16:33:43;14.30;98.00
52615;DHT22;38508;53.158;6.614;2022-11-02T16:36:11;14.20;98.10
52615;DHT22;38508;53.158;6.614;2022-11-02T16:41:14;14.10;98.10
52615;DHT22;38508;53.158;6.614;2022-11-02T16:43:45;13.90;98.10
52615;DHT22;38508;53.158;6.614;2022-11-02T16:46:14;14.00;98.30
52615;DHT22;38508;53.158;6.614;2022-11-02T16:49:20;14.10;98.20
52615;DHT22;38508;53.158;6.614;2022-11-02T16:52:20;14.00;98.00
52615;DHT22;38508;53.158;6.614;2022-11-02T16:54:47;14.10;98.00
52615;DHT22;38508;53.158;6.614;2022-11-02T16:57:21;14.10;98.20
52615;DHT22;38508;53.158;6.614;2022-11-02T17:02:14;14.00;97.90
52615;DHT22;38508;53.158;6.614;2022-11-02T17:04:41;13.90;98.00
52615;DHT22;38508;53.158;6.614;2022-11-02T17:07:15;13.80;98.00
52615;DHT22;38508;53.158;6.614;2022-11-02T17:09:42;13.70;97.90
52615;DHT22;38508;53.158;6.614;2022-11-02T17:12:15;13.60;98.00
52615;DHT22;38508;53.158;6.614;2022-11-02T17:14:44;13.50;98.00
52615;DHT22;38508;53.158;6.614;2022-11-02T17:20:13;13.50;98.10
52615;DHT22;38508;53.158;6.614;2022-11-02T17:25:24;13.50;98.10
52615;DHT22;38508;53.158;6.614;2022-11-02T17:27:51;13.60;98.00
52615;DHT22;38508;53.158;6.614;2022-11-02T17:32:59;13.50;97.90
52615;DHT22;38508;53.158;6.614;2022-11-02T17:35:25;13.40;97.90
52615;DHT22;38508;53.158;6.614;2022-11-02T17:37:54;13.30;98.20
52615;DHT22;38508;53.158;6.614;2022-11-02T17:40:20;13.20;98.10
52615;DHT22;38508;53.158;6.614;2022-11-02T17:42:46;13.10;98.10
52615;DHT22;38508;53.158;6.614;2022-11-02T17:45:26;13.10;98.30
52615;DHT22;38508;53.158;6.614;2022-11-02T17:47:57;13.00;98.40
52615;DHT22;38508;53.158;6.614;2022-11-02T17:50:24;13.00;98.40
52615;DHT22;38508;53.158;6.614;2022-11-02T17:52:51;12.90;98.30
52615;DHT22;38508;53.158;6.614;2022-11-02T17:55:22;12.90;98.30
52615;DHT22;38508;53.158;6.614;2022-11-02T17:57:49;12.80;98.20
52615;DHT22;38508;53.158;6.614;2022-11-02T18:00:16;12.80;98.30
52615;DHT22;38508;53.158;6.614;2022-11-02T18:02:44;12.80;98.40
52615;DHT22;38508;53.158;6.614;2022-11-02T18:05:29;12.60;98.50
52615;DHT22;38508;53.158;6.614;2022-11-02T18:07:57;12.50;98.50
52615;DHT22;38508;53.158;6.614;2022-11-02T18:10:25;12.60;98.50
52615;DHT22;38508;53.158;6.614;2022-11-02T18:12:51;12.60;98.60